Time;durP1;ratioP1;P1;durP2;ratioP2;P2;SDS_P1;SDS_P2;PMS_P1;PMS_P2;Temp;Humidity;BMP_temperature;BMP_pressure;BME280_temperature;BME280_humidity;BME280_pressure;Samples;Min_cycle;Max_cycle;Signal;HPM_P1;HPM_P2
2021/08/29 00:00:23;;;;;;;4.35;2.97;;;16.60;99.90;;;;;;5030797;28;20068;-71
2021/08/29 00:02:49;;;;;;;8.00;3.30;;;16.60;99.90;;;;;;5030574;28;20072;-72
2021/08/29 00:05:15;;;;;;;4.60;2.85;;;16.60;99.90;;;;;;5031251;28;20040;-71
2021/08/29 00:07:40;;;;;;;4.03;3.10;;;16.60;99.90;;;;;;5031140;28;20109;-71
2021/08/29 00:10:07;;;;;;;10.35;3.38;;;16.60;99.90;;;;;;5029408;28;20111;-70
2021/08/29 00:12:33;;;;;;;7.97;3.83;;;16.60;99.90;;;;;;5030626;28;20479;-70
2021/08/29 00:14:58;;;;;;;5.43;3.50;;;16.60;99.90;;;;;;5030548;28;20025;-71
2021/08/29 00:17:24;;;;;;;6.15;4.10;;;16.60;99.90;;;;;;5030618;28;20025;-71
2021/08/29 00:19:50;;;;;;;5.95;3.65;;;16.60;99.90;;;;;;5029984;28;20045;-71
2021/08/29 00:22:16;;;;;;;7.53;3.85;;;16.60;99.90;;;;;;5033575;28;20108;-71
2021/08/29 00:24:42;;;;;;;9.25;3.70;;;16.60;99.90;;;;;;5034062;28;20030;-71
2021/08/29 00:27:08;;;;;;;5.43;3.58;;;16.60;99.90;;;;;;5034315;28;20048;-71
2021/08/29 00:29:34;;;;;;;6.13;3.90;;;16.60;99.90;;;;;;5034324;28;20572;-70
2021/08/29 00:32:00;;;;;;;5.88;4.05;;;16.60;99.90;;;;;;5034686;28;20494;-70
2021/08/29 00:34:25;;;;;;;4.97;3.70;;;16.60;99.90;;;;;;5034237;28;20137;-70
2021/08/29 00:36:51;;;;;;;6.30;4.10;;;16.60;99.90;;;;;;5033928;28;20098;-70
2021/08/29 00:39:17;;;;;;;5.93;4.28;;;16.60;99.90;;;;;;5034051;28;20049;-71
2021/08/29 00:41:44;;;;;;;9.25;4.82;;;16.60;99.90;;;;;;5033924;28;20120;-71
2021/08/29 00:44:12;;;;;;;12.57;5.03;;;16.60;99.90;;;;;;5034313;28;20034;-71
2021/08/29 00:46:38;;;;;;;7.90;4.45;;;16.60;99.90;;;;;;5034041;28;20037;-71
2021/08/29 00:49:04;;;;;;;11.25;4.70;;;16.60;99.90;;;;;;5033761;28;20079;-71
2021/08/29 00:51:32;;;;;;;11.98;4.70;;;16.50;99.90;;;;;;5034031;28;20029;-71
2021/08/29 00:53:58;;;;;;;6.68;4.57;;;16.50;99.90;;;;;;5033692;28;20064;-71
2021/08/29 00:56:24;;;;;;;7.75;4.68;;;16.60;99.90;;;;;;5033912;28;20431;-71
2021/08/29 00:58:55;;;;;;;13.40;5.38;;;16.60;99.90;;;;;;5033984;28;20111;-70
2021/08/29 01:01:28;;;;;;;11.15;5.45;;;16.60;99.90;;;;;;5033619;28;20044;-70
2021/08/29 01:04:00;;;;;;;14.38;5.75;;;16.60;99.90;;;;;;5032541;28;20039;-70
2021/08/29 01:06:51;;;;;;;10.02;5.45;;;16.60;99.90;;;;;;5033507;28;20041;-70
2021/08/29 01:09:18;;;;;;;10.18;5.35;;;16.60;99.90;;;;;;5033300;28;20467;-69
2021/08/29 01:11:50;;;;;;;8.77;5.47;;;16.60;99.90;;;;;;5033474;28;20053;-70
2021/08/29 01:14:23;;;;;;;10.23;5.78;;;16.60;99.90;;;;;;5033910;28;20039;-71
2021/08/29 01:16:54;;;;;;;11.32;5.45;;;16.60;99.90;;;;;;5033527;28;20091;-71
2021/08/29 01:19:29;;;;;;;10.57;6.05;;;16.60;99.90;;;;;;5032257;28;20030;-70
2021/08/29 01:21:55;;;;;;;9.75;6.05;;;16.50;99.90;;;;;;5033007;28;20080;-70
2021/08/29 01:24:22;;;;;;;11.35;6.63;;;16.50;99.90;;;;;;5033224;28;20033;-70
2021/08/29 01:26:57;;;;;;;11.30;6.93;;;16.50;99.90;;;;;;5033105;28;20030;-70
2021/08/29 01:29:29;;;;;;;12.07;6.63;;;16.50;99.90;;;;;;5033221;28;20447;-70
2021/08/29 01:31:55;;;;;;;8.68;6.28;;;16.50;99.90;;;;;;5033315;28;20044;-70
2021/08/29 01:34:21;;;;;;;12.75;6.85;;;16.50;99.90;;;;;;5031106;28;20057;-72
2021/08/29 01:36:53;;;;;;;11.88;7.75;;;16.40;99.90;;;;;;5032926;28;20053;-71
2021/08/29 01:39:20;;;;;;;13.07;8.55;;;16.40;99.90;;;;;;5033085;28;20034;-69
2021/08/29 01:41:49;;;;;;;11.13;7.30;;;16.40;99.90;;;;;;5031846;28;20049;-69
2021/08/29 01:44:16;;;;;;;12.80;7.95;;;16.40;99.90;;;;;;5033221;28;20037;-71
2021/08/29 01:46:42;;;;;;;9.57;7.13;;;16.30;99.90;;;;;;5033010;28;20087;-71
2021/08/29 01:49:09;;;;;;;11.32;7.63;;;16.30;99.90;;;;;;5032691;28;20060;-71
2021/08/29 01:51:37;;;;;;;12.43;7.20;;;16.30;99.90;;;;;;5032878;28;20109;-71
2021/08/29 01:54:06;;;;;;;11.60;8.35;;;16.30;99.90;;;;;;5032918;28;20037;-69
2021/08/29 01:57:01;;;;;;;12.88;7.93;;;16.30;99.90;;;;;;5032608;28;20367;-71
2021/08/29 01:59:27;;;;;;;12.63;7.85;;;16.30;99.90;;;;;;5032950;28;20114;-71
2021/08/29 02:01:53;;;;;;;11.95;8.05;;;16.30;99.90;;;;;;5033001;28;20036;-70
2021/08/29 02:04:21;;;;;;;10.27;7.28;;;16.30;99.90;;;;;;5032458;28;20033;-71
2021/08/29 02:06:49;;;;;;;;;;;16.40;99.90;;;;;;5032946;28;20037;-71
2021/08/29 02:09:17;;;;;;;13.40;7.72;;;16.40;99.90;;;;;;5032532;28;19909;-71
2021/08/29 02:11:51;;;;;;;11.57;7.97;;;16.50;99.90;;;;;;5032600;28;20378;-71
2021/08/29 02:14:23;;;;;;;12.63;7.60;;;16.30;99.90;;;;;;5032790;28;20025;-71
2021/08/29 02:16:50;;;;;;;15.55;8.30;;;16.30;99.90;;;;;;5012928;28;20038;-70
2021/08/29 02:19:22;;;;;;;11.55;6.68;;;16.30;99.90;;;;;;5012522;28;20180;-71
2021/08/29 02:21:48;;;;;;;10.35;6.97;;;16.30;99.90;;;;;;5012673;28;20030;-71
2021/08/29 02:24:14;;;;;;;10.88;7.53;;;16.30;99.90;;;;;;5012706;28;20456;-71
2021/08/29 02:26:39;;;;;;;10.57;6.65;;;16.40;99.90;;;;;;5012426;28;20092;-71
2021/08/29 02:29:05;;;;;;;14.13;6.88;;;16.30;99.90;;;;;;5011594;28;20040;-71
2021/08/29 02:31:31;;;;;;;11.93;7.50;;;16.30;99.90;;;;;;5012334;28;20037;-70
2021/08/29 02:33:56;;;;;;;14.40;7.90;;;16.40;99.90;;;;;;5012253;28;20034;-71
2021/08/29 02:36:22;;;;;;;15.80;8.20;;;16.40;99.90;;;;;;5012047;28;20445;-71
2021/08/29 02:38:50;;;;;;;10.63;7.25;;;16.40;99.90;;;;;;5012375;28;20030;-69
2021/08/29 02:41:17;;;;;;;;;;;16.40;99.90;;;;;;5012839;28;20108;-72
2021/08/29 02:43:45;;;;;;;13.65;8.05;;;16.30;99.90;;;;;;5012325;28;20298;-71
2021/08/29 02:46:11;;;;;;;14.25;8.63;;;16.30;99.90;;;;;;5012025;28;20169;-71
2021/08/29 02:48:38;;;;;;;13.73;8.25;;;16.30;99.90;;;;;;5012262;28;20029;-70
2021/08/29 02:51:04;;;;;;;13.18;7.93;;;16.30;99.90;;;;;;5011954;28;20037;-71
2021/08/29 02:53:30;;;;;;;14.55;8.20;;;16.30;99.90;;;;;;5012089;28;20013;-71
2021/08/29 02:55:59;;;;;;;17.10;7.82;;;16.20;99.90;;;;;;5012373;28;20029;-70
2021/08/29 02:58:26;;;;;;;16.90;8.65;;;16.30;99.90;;;;;;5011623;28;20057;-70
2021/08/29 03:00:52;;;;;;;14.50;8.13;;;16.10;99.90;;;;;;5011722;28;20113;-70
2021/08/29 03:03:18;;;;;;;13.35;7.93;;;16.20;99.90;;;;;;5011744;28;20172;-70
2021/08/29 03:05:44;;;;;;;10.18;6.97;;;16.20;99.90;;;;;;5011713;28;20038;-70
2021/08/29 03:08:10;;;;;;;11.63;7.22;;;16.00;99.90;;;;;;5012313;28;20030;-69
2021/08/29 03:10:36;;;;;;;14.15;7.60;;;16.10;99.90;;;;;;5011685;28;20030;-70
2021/08/29 03:13:03;;;;;;;14.35;7.57;;;16.00;99.90;;;;;;5011675;28;20534;-71
2021/08/29 03:15:30;;;;;;;13.10;7.43;;;16.10;99.90;;;;;;5011635;28;20057;-72
2021/08/29 03:17:57;;;;;;;11.65;7.22;;;16.10;99.90;;;;;;5011699;28;20117;-71
2021/08/29 03:20:26;;;;;;;11.20;7.35;;;16.10;99.90;;;;;;5011308;28;20105;-71
2021/08/29 03:22:52;;;;;;;10.43;6.70;;;16.10;99.90;;;;;;5012129;28;20013;-71
2021/08/29 03:25:19;;;;;;;12.57;6.60;;;16.30;99.90;;;;;;5011533;28;20041;-70
2021/08/29 03:27:45;;;;;;;10.13;6.85;;;16.10;99.90;;;;;;5011811;28;20045;-71
2021/08/29 03:30:11;;;;;;;8.07;5.57;;;16.10;99.90;;;;;;5010361;28;20034;-71
2021/08/29 03:32:39;;;;;;;10.38;5.80;;;16.20;99.90;;;;;;5011591;28;20026;-71
2021/08/29 03:35:05;;;;;;;7.47;5.30;;;16.20;99.90;;;;;;5011827;28;20032;-72
2021/08/29 03:37:32;;;;;;;9.45;5.57;;;16.20;99.90;;;;;;5011252;28;20128;-72
2021/08/29 03:40:00;;;;;;;8.60;5.47;;;16.30;99.90;;;;;;5011564;28;20152;-71
2021/08/29 03:42:26;;;;;;;9.70;5.60;;;16.20;99.90;;;;;;5011407;28;20030;-71
2021/08/29 03:44:52;;;;;;;7.95;5.03;;;16.20;99.90;;;;;;5011291;28;20376;-71
2021/08/29 03:47:18;;;;;;;6.75;4.65;;;16.20;99.90;;;;;;5011629;28;20022;-71
2021/08/29 03:49:44;;;;;;;9.88;5.25;;;16.20;99.90;;;;;;5011419;28;20042;-71
2021/08/29 03:52:13;;;;;;;8.00;4.75;;;16.20;99.90;;;;;;5011298;28;20076;-71
2021/08/29 03:54:41;;;;;;;9.52;4.88;;;16.20;99.90;;;;;;5011253;28;20069;-71
2021/08/29 03:57:07;;;;;;;8.90;4.93;;;16.30;99.90;;;;;;5013902;28;20049;-70
2021/08/29 03:59:32;;;;;;;6.68;4.47;;;16.30;99.90;;;;;;5016353;28;20289;-71
2021/08/29 04:01:58;;;;;;;10.73;5.13;;;16.20;99.90;;;;;;5034207;28;20459;-71
2021/08/29 04:04:24;;;;;;;10.35;4.50;;;16.20;99.90;;;;;;5034781;28;20041;-71
2021/08/29 04:06:52;;;;;;;7.15;4.28;;;16.30;99.90;;;;;;5034924;28;20088;-71
2021/08/29 04:09:19;;;;;;;;;;;16.30;99.90;;;;;;5034067;28;20459;-71
2021/08/29 04:11:47;;;;;;;8.52;4.68;;;16.40;99.90;;;;;;5033603;28;19909;-70
2021/08/29 04:14:13;;;;;;;5.15;3.97;;;16.40;99.90;;;;;;5034960;28;20030;-71
2021/08/29 04:16:39;;;;;;;7.90;4.30;;;16.40;99.90;;;;;;5034517;28;20037;-71
2021/08/29 04:19:05;;;;;;;6.88;4.30;;;16.30;99.90;;;;;;5034920;28;20040;-71
2021/08/29 04:21:32;;;;;;;6.95;4.22;;;16.30;99.90;;;;;;5034502;28;20494;-71
2021/08/29 04:23:58;;;;;;;5.95;4.50;;;16.30;99.90;;;;;;5034480;28;20163;-71
2021/08/29 04:26:24;;;;;;;6.82;4.55;;;16.30;99.90;;;;;;5034081;28;20107;-71
2021/08/29 04:28:50;;;;;;;5.88;3.88;;;16.30;99.90;;;;;;5034871;28;20076;-70
2021/08/29 04:31:35;;;;;;;8.13;4.38;;;16.30;99.90;;;;;;5034154;28;20029;-70
2021/08/29 04:34:06;;;;;;;6.72;4.18;;;16.30;99.90;;;;;;5034414;28;20021;-71
2021/08/29 04:36:32;;;;;;;5.95;3.92;;;16.20;99.90;;;;;;5034409;28;20037;-71
2021/08/29 04:38:59;;;;;;;5.22;3.58;;;16.30;99.90;;;;;;5034227;28;20037;-70
2021/08/29 04:41:25;;;;;;;5.77;3.50;;;16.30;99.90;;;;;;5033905;28;20485;-71
2021/08/29 04:43:50;;;;;;;6.15;3.47;;;16.30;99.90;;;;;;5033862;28;20025;-71
2021/08/29 04:46:16;;;;;;;5.55;3.38;;;16.30;99.90;;;;;;5033930;28;20468;-71
2021/08/29 04:48:42;;;;;;;5.57;4.07;;;16.30;99.90;;;;;;5033957;28;20029;-71
2021/08/29 04:51:07;;;;;;;5.22;3.13;;;16.30;99.90;;;;;;5033913;28;20036;-71
2021/08/29 04:53:33;;;;;;;5.03;3.47;;;16.30;99.90;;;;;;5033991;28;20057;-71
2021/08/29 04:55:59;;;;;;;5.18;3.47;;;16.40;99.90;;;;;;5034340;28;20032;-71
2021/08/29 04:58:24;;;;;;;5.45;3.75;;;16.30;99.90;;;;;;5032716;28;20057;-71
2021/08/29 05:00:50;;;;;;;6.10;3.78;;;16.30;99.90;;;;;;5034125;28;20048;-71
2021/08/29 05:03:15;;;;;;;5.32;2.88;;;16.30;99.90;;;;;;5032622;28;20508;-72
2021/08/29 05:05:41;;;;;;;4.43;3.40;;;16.30;99.90;;;;;;5032350;28;20033;-72
2021/08/29 05:08:06;;;;;;;4.50;3.47;;;16.30;99.90;;;;;;5032933;28;20073;-71
2021/08/29 05:10:32;;;;;;;3.95;2.95;;;16.30;99.90;;;;;;5033608;28;20125;-71
2021/08/29 05:12:58;;;;;;;5.65;3.00;;;16.30;99.90;;;;;;5033605;28;20022;-72
2021/08/29 05:15:23;;;;;;;6.25;3.50;;;16.20;99.90;;;;;;5033193;28;20037;-71
2021/08/29 05:17:49;;;;;;;4.43;3.60;;;16.30;99.90;;;;;;5033495;28;20032;-71
2021/08/29 05:20:14;;;;;;;6.45;3.63;;;16.30;99.90;;;;;;5033782;28;20033;-72
2021/08/29 05:22:40;;;;;;;5.40;3.25;;;16.30;99.90;;;;;;5047964;28;20099;-71
2021/08/29 05:25:06;;;;;;;7.68;3.33;;;16.30;99.90;;;;;;5033303;28;20029;-71
2021/08/29 05:27:32;;;;;;;4.60;3.22;;;16.30;99.90;;;;;;5033132;28;20039;-72
2021/08/29 05:29:57;;;;;;;5.78;4.00;;;16.30;99.90;;;;;;5032024;28;20445;-72
2021/08/29 05:32:23;;;;;;;4.75;3.35;;;16.30;99.90;;;;;;5033117;28;20033;-72
2021/08/29 05:34:49;;;;;;;4.85;3.28;;;16.30;99.90;;;;;;5033501;28;20033;-71
2021/08/29 05:37:14;;;;;;;4.70;3.03;;;16.30;99.90;;;;;;5033151;28;20325;-71
2021/08/29 05:39:40;;;;;;;5.03;3.33;;;16.30;99.90;;;;;;5033150;28;20040;-71
2021/08/29 05:42:06;;;;;;;7.10;3.38;;;16.30;99.90;;;;;;5032738;28;20037;-71
2021/08/29 05:44:31;;;;;;;7.63;3.45;;;16.30;99.90;;;;;;5032885;28;20033;-73
2021/08/29 05:46:57;;;;;;;6.05;3.15;;;16.40;99.90;;;;;;5033325;28;20026;-71
2021/08/29 05:49:23;;;;;;;4.68;3.50;;;16.30;99.90;;;;;;5032880;28;20064;-72
2021/08/29 05:51:48;;;;;;;5.72;3.28;;;16.30;99.90;;;;;;5032871;28;20036;-72
2021/08/29 05:54:14;;;;;;;4.70;3.35;;;16.30;99.90;;;;;;5032852;28;20044;-73
2021/08/29 05:56:40;;;;;;;5.38;3.13;;;16.30;99.90;;;;;;5032694;28;20033;-73
2021/08/29 05:59:05;;;;;;;5.75;3.42;;;16.40;99.90;;;;;;5033177;28;20060;-72
2021/08/29 06:01:31;;;;;;;4.80;3.50;;;16.30;99.90;;;;;;5032513;28;20372;-71
2021/08/29 06:03:58;;;;;;;4.30;3.35;;;16.30;99.90;;;;;;5032536;28;20034;-73
2021/08/29 06:06:24;;;;;;;6.27;3.27;;;16.30;99.90;;;;;;5036050;28;20065;-73
2021/08/29 06:08:49;;;;;;;4.68;3.38;;;16.40;99.90;;;;;;5032213;28;20053;-71
2021/08/29 06:11:15;;;;;;;8.65;4.13;;;16.30;99.90;;;;;;5032741;28;20034;-71
2021/08/29 06:13:40;;;;;;;7.13;3.92;;;16.40;99.90;;;;;;5032491;28;20041;-73
2021/08/29 06:16:06;;;;;;;6.70;4.13;;;16.30;99.90;;;;;;5032550;28;20501;-72
2021/08/29 06:18:32;;;;;;;5.38;3.83;;;16.30;99.90;;;;;;5031863;28;20030;-72
2021/08/29 06:20:57;;;;;;;4.32;3.50;;;16.40;99.90;;;;;;5032310;28;20057;-72
2021/08/29 06:23:23;;;;;;;6.60;3.90;;;16.40;99.90;;;;;;5032250;28;20033;-73
2021/08/29 06:25:49;;;;;;;4.65;3.78;;;16.30;99.90;;;;;;5032387;28;20363;-74
2021/08/29 06:28:15;;;;;;;7.50;4.15;;;16.30;99.90;;;;;;5032336;28;20084;-72
2021/08/29 06:30:41;;;;;;;6.03;3.30;;;16.30;99.90;;;;;;5032130;28;20033;-72
2021/08/29 06:33:07;;;;;;;4.43;3.70;;;16.40;99.90;;;;;;5032330;28;20030;-73
2021/08/29 06:35:32;;;;;;;8.30;4.03;;;16.40;99.90;;;;;;5030665;28;20029;-72
2021/08/29 06:37:58;;;;;;;6.07;4.32;;;16.50;99.90;;;;;;5031144;28;20541;-72
2021/08/29 06:40:23;;;;;;;6.65;4.78;;;16.40;99.90;;;;;;5032168;28;20037;-71
2021/08/29 06:42:49;;;;;;;6.47;4.20;;;16.40;99.90;;;;;;5031653;28;20033;-71
2021/08/29 06:45:14;;;;;;;5.32;4.00;;;16.50;99.90;;;;;;5032059;28;20034;-72
2021/08/29 06:47:40;;;;;;;6.60;4.03;;;16.50;99.90;;;;;;5031685;28;20026;-73
2021/08/29 06:50:06;;;;;;;6.60;4.53;;;16.40;99.90;;;;;;5030935;28;20323;-71
2021/08/29 06:52:32;;;;;;;6.75;4.55;;;16.40;99.90;;;;;;5031795;28;20183;-71
2021/08/29 06:54:57;;;;;;;5.45;3.78;;;16.40;99.90;;;;;;5031558;28;20542;-72
2021/08/29 06:57:25;;;;;;;8.05;3.97;;;16.40;99.90;;;;;;5032470;28;20026;-74
2021/08/29 06:59:51;;;;;;;6.60;4.35;;;16.50;99.90;;;;;;5031590;28;20099;-71
2021/08/29 07:02:17;;;;;;;7.75;4.20;;;16.50;99.90;;;;;;5032061;28;20022;-71
2021/08/29 07:04:43;;;;;;;5.78;4.05;;;16.50;99.90;;;;;;5031405;28;20036;-73
2021/08/29 07:07:09;;;;;;;5.93;4.43;;;16.50;99.90;;;;;;5031619;28;20479;-74
2021/08/29 07:09:38;;;;;;;8.23;4.28;;;16.50;99.90;;;;;;5031545;28;20448;-73
2021/08/29 07:12:05;;;;;;;7.20;4.50;;;16.50;99.90;;;;;;5031631;28;20057;-73
2021/08/29 07:14:30;;;;;;;6.13;3.78;;;16.50;99.90;;;;;;5031366;28;20026;-73
2021/08/29 07:16:56;;;;;;;6.03;3.67;;;16.50;99.90;;;;;;5030876;28;20047;-74
2021/08/29 07:19:22;;;;;;;6.00;3.72;;;16.60;99.90;;;;;;5030417;28;20041;-73
2021/08/29 07:21:47;;;;;;;4.55;3.60;;;16.60;99.90;;;;;;5030061;28;20025;-73
2021/08/29 07:24:13;;;;;;;8.18;4.40;;;16.60;99.90;;;;;;5031576;28;20113;-73
2021/08/29 07:26:40;;;;;;;4.70;3.25;;;16.60;99.90;;;;;;5031139;28;20121;-73
2021/08/29 07:29:05;;;;;;;4.07;3.15;;;16.60;99.90;;;;;;5030827;28;20487;-73
2021/08/29 07:31:31;;;;;;;7.30;3.33;;;16.60;99.90;;;;;;5029496;28;20080;-72
2021/08/29 07:33:56;;;;;;;3.53;2.95;;;16.70;99.90;;;;;;5030989;28;20034;-74
2021/08/29 07:36:22;;;;;;;5.18;3.13;;;16.70;99.90;;;;;;5035290;28;20034;-72
2021/08/29 07:38:48;;;;;;;5.85;3.13;;;16.70;99.90;;;;;;5031233;28;20554;-73
2021/08/29 07:41:13;;;;;;;4.90;3.05;;;16.60;99.90;;;;;;5031582;28;20037;-73
2021/08/29 07:43:39;;;;;;;4.32;3.15;;;16.70;99.90;;;;;;5031024;28;20033;-73
2021/08/29 07:46:05;;;;;;;5.40;3.47;;;16.70;99.90;;;;;;5030938;28;20125;-74
2021/08/29 07:48:30;;;;;;;4.65;3.08;;;16.70;99.90;;;;;;5031186;28;20029;-73
2021/08/29 07:50:56;;;;;;;3.30;3.00;;;16.70;99.90;;;;;;5030601;28;20497;-73
2021/08/29 07:53:22;;;;;;;8.52;3.97;;;16.80;99.90;;;;;;5031542;28;20104;-73
2021/08/29 07:55:47;;;;;;;4.32;3.47;;;16.70;99.90;;;;;;5011301;28;20038;-73
2021/08/29 07:58:13;;;;;;;7.00;3.75;;;16.70;99.90;;;;;;5010067;28;20049;-73
2021/08/29 08:00:39;;;;;;;5.20;3.25;;;16.70;99.90;;;;;;5010954;28;20034;-73
2021/08/29 08:03:04;;;;;;;6.43;3.80;;;16.70;99.90;;;;;;5011212;28;20041;-74
2021/08/29 08:05:30;;;;;;;5.03;3.42;;;16.80;99.90;;;;;;5011160;28;20022;-74
2021/08/29 08:07:57;;;;;;;6.50;3.42;;;16.80;99.90;;;;;;5011579;28;20470;-77
2021/08/29 08:10:23;;;;;;;5.35;3.95;;;16.80;99.90;;;;;;5011198;28;20026;-72
2021/08/29 08:12:49;;;;;;;5.70;3.80;;;16.80;99.90;;;;;;5010744;28;20480;-71
2021/08/29 08:15:15;;;;;;;3.88;3.35;;;16.80;99.90;;;;;;5009859;28;20179;-70
2021/08/29 08:17:40;;;;;;;7.32;3.30;;;16.80;99.90;;;;;;5011067;28;20503;-70
2021/08/29 08:20:10;;;;;;;5.28;3.60;;;16.80;99.90;;;;;;5011583;28;20026;-71
2021/08/29 08:22:36;;;;;;;4.20;3.13;;;16.80;99.90;;;;;;5009584;28;20057;-75
2021/08/29 08:25:02;;;;;;;10.82;3.20;;;16.80;99.90;;;;;;5010668;28;20471;-73
2021/08/29 08:27:27;;;;;;;5.53;3.70;;;16.80;99.90;;;;;;5011022;28;20045;-74
2021/08/29 08:29:53;;;;;;;7.82;3.67;;;16.80;99.90;;;;;;5014941;28;20040;-73
2021/08/29 08:32:18;;;;;;;6.55;3.35;;;16.80;99.90;;;;;;5030146;28;20507;-73
2021/08/29 08:34:44;;;;;;;4.38;3.13;;;16.80;99.90;;;;;;5030497;28;20140;-73
2021/08/29 08:37:10;;;;;;;3.55;2.50;;;16.90;99.90;;;;;;5030491;28;20509;-71
2021/08/29 08:39:36;;;;;;;4.32;3.08;;;16.90;99.90;;;;;;5030546;28;20037;-70
2021/08/29 08:42:01;;;;;;;5.93;3.55;;;17.00;99.90;;;;;;5030527;28;20048;-72
2021/08/29 08:44:27;;;;;;;5.72;3.67;;;17.00;99.90;;;;;;5032966;28;20113;-73
2021/08/29 08:46:55;;;;;;;5.63;2.83;;;16.90;99.90;;;;;;5034136;28;20111;-74
2021/08/29 08:49:23;;;;;;;4.93;2.97;;;16.90;99.90;;;;;;5034090;28;20045;-72
2021/08/29 08:51:51;;;;;;;20.50;11.70;;;17.00;99.90;;;;;;5032786;28;20324;-73
2021/08/29 08:54:17;;;;;;;5.80;3.93;;;17.00;99.90;;;;;;5032699;28;20033;-70
2021/08/29 08:56:44;;;;;;;7.35;3.88;;;17.10;99.90;;;;;;5032958;28;20436;-72
2021/08/29 08:59:09;;;;;;;4.90;3.42;;;17.10;99.90;;;;;;5034053;28;20083;-72
2021/08/29 09:01:35;;;;;;;6.60;3.42;;;17.10;99.90;;;;;;5033833;28;20049;-73
2021/08/29 09:04:01;;;;;;;5.55;3.38;;;17.10;99.90;;;;;;5033802;28;20053;-73
2021/08/29 09:06:27;;;;;;;6.80;3.00;;;17.10;99.90;;;;;;5033763;28;20049;-74
2021/08/29 09:08:53;;;;;;;7.47;3.85;;;17.20;99.90;;;;;;5033551;28;20102;-71
2021/08/29 09:11:18;;;;;;;6.15;3.60;;;17.20;99.90;;;;;;5033799;28;20021;-73
2021/08/29 09:13:47;;;;;;;4.75;3.33;;;17.20;99.90;;;;;;5033488;28;20045;-72
2021/08/29 09:16:16;;;;;;;6.10;3.83;;;17.20;99.90;;;;;;5033998;28;20025;-73
2021/08/29 09:18:56;;;;;;;7.00;3.75;;;17.20;99.90;;;;;;5032542;28;20045;-74
2021/08/29 09:21:28;;;;;;;8.05;3.78;;;17.30;99.90;;;;;;5033394;28;20033;-72
2021/08/29 09:23:57;;;;;;;6.22;4.45;;;17.40;99.90;;;;;;5033376;28;20034;-72
2021/08/29 09:26:25;;;;;;;5.50;3.55;;;17.40;99.90;;;;;;5033090;28;20025;-72
2021/08/29 09:28:55;;;;;;;5.43;3.70;;;17.40;99.90;;;;;;5031100;28;20026;-72
2021/08/29 09:31:20;;;;;;;8.45;3.58;;;17.40;99.90;;;;;;5032586;28;20041;-72
2021/08/29 09:34:00;;;;;;;8.23;4.45;;;17.40;99.90;;;;;;5033392;28;20034;-73
2021/08/29 09:36:30;;;;;;;4.90;3.45;;;17.50;99.90;;;;;;5033246;28;20038;-74
2021/08/29 09:39:18;;;;;;;4.07;2.97;;;17.50;99.90;;;;;;5033322;28;20037;-75
2021/08/29 09:41:44;;;;;;;7.32;4.10;;;17.60;99.90;;;;;;5033143;28;20278;-74
2021/08/29 09:44:21;;;;;;;5.30;2.95;;;17.60;99.90;;;;;;5033093;28;20436;-72
2021/08/29 09:46:58;;;;;;;6.40;3.03;;;17.70;99.90;;;;;;5032724;28;20042;-72
2021/08/29 09:49:32;;;;;;;3.40;2.10;;;17.70;99.90;;;;;;5033051;28;20135;-72
2021/08/29 09:52:03;;;;;;;5.90;2.80;;;17.60;99.90;;;;;;5032989;28;20108;-73
2021/08/29 09:54:34;;;;;;;4.90;2.85;;;17.60;99.90;;;;;;5032334;28;20088;-72
2021/08/29 09:57:04;;;;;;;4.65;3.15;;;17.60;99.90;;;;;;5032931;28;20040;-72
2021/08/29 09:59:43;;;;;;;5.13;2.65;;;17.60;99.90;;;;;;5032464;28;20370;-72
2021/08/29 10:02:11;;;;;;;3.72;2.97;;;17.60;99.90;;;;;;5032143;28;20409;-72
2021/08/29 10:04:37;;;;;;;4.32;2.70;;;17.50;99.90;;;;;;5032332;28;20038;-71
2021/08/29 10:07:13;;;;;;;3.88;2.35;;;17.50;99.90;;;;;;5032215;28;20430;-72
2021/08/29 10:09:41;;;;;;;4.20;2.60;;;17.60;99.90;;;;;;5032217;28;20042;-72
2021/08/29 10:12:07;;;;;;;5.57;3.00;;;17.50;99.90;;;;;;5032370;28;20600;-71
2021/08/29 10:14:35;;;;;;;3.03;2.55;;;17.60;99.90;;;;;;5032056;28;20029;-70
2021/08/29 10:17:02;;;;;;;7.43;3.08;;;17.60;99.90;;;;;;5032690;28;20018;-70
2021/08/29 10:19:30;;;;;;;5.32;2.95;;;17.70;99.90;;;;;;5031722;28;20044;-70
2021/08/29 10:21:57;;;;;;;4.17;2.57;;;17.70;99.90;;;;;;5031825;28;20443;-71
2021/08/29 10:24:27;;;;;;;5.13;2.47;;;17.80;99.90;;;;;;5031956;28;20503;-70
2021/08/29 10:26:55;;;;;;;4.03;2.55;;;17.80;99.90;;;;;;5030988;28;20041;-71
2021/08/29 10:29:28;;;;;;;3.42;2.58;;;17.90;99.90;;;;;;5032223;28;20521;-69
2021/08/29 10:32:18;;;;;;;3.67;2.33;;;17.90;99.90;;;;;;5031906;28;20048;-70
2021/08/29 10:34:44;;;;;;;6.82;2.40;;;17.90;99.90;;;;;;5030655;28;20053;-70
2021/08/29 10:37:10;;;;;;;3.28;2.25;;;17.90;99.90;;;;;;5031823;28;20048;-71
2021/08/29 10:39:36;;;;;;;3.25;2.60;;;17.90;99.90;;;;;;5030970;28;20627;-71
2021/08/29 10:42:02;;;;;;;2.40;1.90;;;17.90;99.90;;;;;;5031442;28;20473;-70
2021/08/29 10:44:29;;;;;;;2.88;2.17;;;17.90;99.90;;;;;;5030227;28;20124;-70
2021/08/29 10:46:56;;;;;;;5.57;2.60;;;18.00;99.90;;;;;;5031927;28;20022;-69
2021/08/29 10:49:23;;;;;;;14.15;9.32;;;18.00;99.90;;;;;;5031708;28;20029;-69
2021/08/29 10:51:51;;;;;;;6.07;3.95;;;18.10;99.90;;;;;;5031417;28;20080;-70
2021/08/29 10:54:17;;;;;;;;;;;18.10;99.90;;;;;;5031867;28;20438;-73
2021/08/29 10:56:42;;;;;;;3.28;2.40;;;18.20;99.90;;;;;;5031313;28;19920;-70
2021/08/29 10:59:08;;;;;;;4.32;2.72;;;18.30;99.90;;;;;;5031533;28;20060;-70
2021/08/29 11:01:39;;;;;;;4.55;2.30;;;18.30;99.90;;;;;;5031359;28;20022;-70
2021/08/29 11:04:25;;;;;;;4.93;2.45;;;18.40;99.90;;;;;;5031307;28;20056;-72
2021/08/29 11:06:53;;;;;;;4.72;1.98;;;18.40;99.90;;;;;;5030361;28;20546;-71
2021/08/29 11:09:37;;;;;;;3.05;2.15;;;18.40;99.90;;;;;;5031255;28;20450;-71
2021/08/29 11:12:15;;;;;;;2.60;1.88;;;18.40;99.90;;;;;;5025461;28;20034;-69
2021/08/29 11:14:51;;;;;;;2.50;1.75;;;18.50;99.90;;;;;;5011346;28;20555;-70
2021/08/29 11:17:19;;;;;;;4.40;2.47;;;18.50;99.90;;;;;;5011549;28;20022;-71
2021/08/29 11:19:50;;;;;;;2.60;1.85;;;18.50;99.90;;;;;;5011338;28;20030;-70
2021/08/29 11:22:24;;;;;;;4.38;2.42;;;18.50;99.90;;;;;;5011041;28;20109;-69
2021/08/29 11:24:56;;;;;;;8.05;2.40;;;18.60;99.90;;;;;;5011399;28;20101;-70
2021/08/29 11:27:39;;;;;;;2.10;1.92;;;18.70;99.90;;;;;;5010181;28;20361;-70
2021/08/29 11:30:05;;;;;;;2.42;2.05;;;18.90;99.90;;;;;;5011116;28;20300;-72
2021/08/29 11:32:32;;;;;;;2.53;2.10;;;19.20;99.90;;;;;;5011009;28;20040;-72
2021/08/29 11:35:20;;;;;;;1.60;1.50;;;19.40;99.90;;;;;;5011559;28;20088;-72
2021/08/29 11:38:01;;;;;;;;;;;19.40;99.90;;;;;;5011588;28;20264;-71
2021/08/29 11:40:45;;;;;;;1.95;1.77;;;19.40;99.90;;;;;;5010998;28;19913;-69
2021/08/29 11:43:26;;;;;;;2.45;2.25;;;19.40;99.90;;;;;;5011126;28;20034;-72
2021/08/29 11:46:15;;;;;;;3.20;2.08;;;19.30;99.90;;;;;;5009925;28;20062;-71
2021/08/29 11:49:00;;;;;;;2.45;2.20;;;19.10;99.90;;;;;;5010910;28;20083;-71
2021/08/29 11:51:32;;;;;;;4.95;2.60;;;19.00;99.90;;;;;;5011128;28;20026;-74
2021/08/29 11:54:01;;;;;;;3.35;2.70;;;19.00;99.90;;;;;;5010975;28;20034;-75
2021/08/29 11:56:29;;;;;;;3.85;2.35;;;19.00;99.90;;;;;;5011128;28;20369;-73
2021/08/29 11:58:56;;;;;;;2.47;1.85;;;19.00;99.90;;;;;;5011173;28;20153;-74
2021/08/29 12:01:22;;;;;;;4.10;1.70;;;19.00;99.90;;;;;;5010978;28;20125;-72
2021/08/29 12:03:48;;;;;;;2.38;1.90;;;19.00;99.90;;;;;;5011047;28;20038;-71
2021/08/29 12:06:26;;;;;;;3.03;2.10;;;19.00;99.90;;;;;;5010866;28;20372;-71
2021/08/29 12:09:02;;;;;;;5.10;2.63;;;19.00;99.90;;;;;;5011029;28;20113;-76
2021/08/29 12:11:34;;;;;;;3.28;2.85;;;19.10;99.90;;;;;;5011061;28;20468;-70
2021/08/29 12:14:13;;;;;;;3.75;2.75;;;19.10;99.90;;;;;;5011042;28;20467;-70
2021/08/29 12:16:44;;;;;;;4.75;3.60;;;19.10;99.90;;;;;;5007972;28;20042;-70
2021/08/29 12:19:15;;;;;;;4.40;3.22;;;19.00;99.90;;;;;;5013463;28;20037;-69
2021/08/29 12:21:42;;;;;;;10.85;5.35;;;19.00;99.90;;;;;;5013396;28;20113;-69
2021/08/29 12:24:12;;;;;;;7.75;4.82;;;18.90;99.90;;;;;;5013467;28;20134;-69
2021/08/29 12:26:39;;;;;;;8.40;5.38;;;18.90;99.90;;;;;;5014265;28;20030;-73
2021/08/29 12:29:07;;;;;;;9.93;5.82;;;18.80;99.90;;;;;;5015189;28;20026;-70
2021/08/29 12:31:42;;;;;;;6.03;4.20;;;18.90;99.90;;;;;;5014300;28;20041;-72
2021/08/29 12:34:08;;;;;;;4.78;3.78;;;18.90;99.90;;;;;;5014954;28;20026;-72
2021/08/29 12:36:36;;;;;;;6.55;3.67;;;18.80;99.90;;;;;;5014428;28;20096;-72
2021/08/29 12:39:11;;;;;;;7.38;3.50;;;18.80;99.90;;;;;;5014483;28;20060;-72
2021/08/29 12:41:37;;;;;;;4.25;3.33;;;18.80;99.90;;;;;;5014388;28;20029;-72
2021/08/29 12:44:06;;;;;;;4.90;3.20;;;18.80;99.90;;;;;;5014930;28;20014;-74
2021/08/29 12:46:32;;;;;;;4.22;3.20;;;18.70;99.90;;;;;;5014211;28;20493;-73
2021/08/29 12:48:58;;;;;;;6.75;3.33;;;18.70;99.90;;;;;;5013211;28;20108;-74